Time;durP1;ratioP1;P1;durP2;ratioP2;P2;SDS_P1;SDS_P2;PMS_P1;PMS_P2;Temp;Humidity;BMP_temperature;BMP_pressure;BME280_temperature;BME280_humidity;BME280_pressure;Samples;Min_cycle;Max_cycle;Signal;HPM_P1;HPM_P2
2021/07/09 00:01:22;;;;;;;4.25;1.10;;;18.80;90.80;;;;;;4956043;29;20047;-82
2021/07/09 00:03:48;;;;;;;2.25;1.17;;;18.80;90.80;;;;;;4938669;29;20023;-81
2021/07/09 00:06:14;;;;;;;2.75;1.10;;;18.80;90.60;;;;;;4939541;29;20054;-81
2021/07/09 00:08:40;;;;;;;3.33;1.00;;;18.70;90.60;;;;;;4956226;29;20465;-83
2021/07/09 00:11:06;;;;;;;1.25;0.90;;;18.70;90.50;;;;;;4937844;29;20038;-80
2021/07/09 00:13:32;;;;;;;2.80;1.00;;;18.70;90.30;;;;;;4938642;29;20034;-85
2021/07/09 00:15:58;;;;;;;3.55;1.08;;;18.70;90.30;;;;;;4954936;28;20039;-81
2021/07/09 00:18:24;;;;;;;1.52;0.90;;;18.60;90.30;;;;;;4939594;29;20027;-81
2021/07/09 00:20:49;;;;;;;1.63;1.10;;;18.70;90.30;;;;;;4938959;29;20023;-80
2021/07/09 00:23:15;;;;;;;2.05;0.93;;;18.70;90.20;;;;;;4940262;29;20032;-82
2021/07/09 00:25:41;;;;;;;1.60;1.00;;;18.70;90.20;;;;;;4957121;29;20035;-82
2021/07/09 00:28:07;;;;;;;1.67;1.00;;;18.70;90.10;;;;;;4940407;29;20054;-82
2021/07/09 00:30:32;;;;;;;1.90;1.00;;;18.70;90.20;;;;;;4939983;29;20039;-82
2021/07/09 00:32:58;;;;;;;2.67;0.90;;;18.60;90.20;;;;;;4956730;28;20203;-82
2021/07/09 00:35:23;;;;;;;3.42;1.08;;;18.60;90.30;;;;;;4940235;29;20461;-82
2021/07/09 00:37:49;;;;;;;1.95;1.10;;;18.60;90.20;;;;;;4939640;29;20066;-82
2021/07/09 00:40:15;;;;;;;1.50;0.93;;;18.60;90.20;;;;;;4957121;28;20113;-81
2021/07/09 00:42:42;;;;;;;3.05;1.02;;;18.60;90.10;;;;;;4939601;29;20027;-82
2021/07/09 00:45:10;;;;;;;2.85;1.05;;;18.50;90.10;;;;;;4956958;29;20052;-80
2021/07/09 00:47:36;;;;;;;1.90;1.00;;;18.60;90.30;;;;;;4939886;29;20035;-81
2021/07/09 00:50:03;;;;;;;1.60;1.38;;;18.60;90.40;;;;;;4939377;29;20026;-81
2021/07/09 00:52:29;;;;;;;1.67;0.93;;;18.60;90.40;;;;;;4956459;28;20030;-80
2021/07/09 00:54:55;;;;;;;1.42;0.73;;;18.50;90.40;;;;;;4956345;28;20039;-80
2021/07/09 00:57:20;;;;;;;2.13;1.02;;;18.50;90.50;;;;;;4956630;28;20433;-80
2021/07/09 00:59:46;;;;;;;1.40;0.98;;;18.40;90.50;;;;;;4938678;29;20507;-81
2021/07/09 01:02:12;;;;;;;3.40;1.10;;;18.40;90.40;;;;;;4939419;29;20067;-80
2021/07/09 01:04:37;;;;;;;3.13;1.20;;;18.50;90.30;;;;;;4956445;29;20024;-80
2021/07/09 01:07:03;;;;;;;3.38;1.00;;;18.50;90.30;;;;;;4956180;28;20058;-81
2021/07/09 01:09:29;;;;;;;1.67;1.00;;;18.50;90.20;;;;;;4939502;29;20059;-80
2021/07/09 01:11:55;;;;;;;2.53;1.00;;;18.50;90.10;;;;;;4938931;29;20027;-80
2021/07/09 01:14:22;;;;;;;2.85;1.30;;;18.50;90.30;;;;;;4939195;29;20058;-81
2021/07/09 01:16:49;;;;;;;2.67;1.15;;;18.40;90.50;;;;;;4939015;29;20122;-81
2021/07/09 01:19:16;;;;;;;2.22;0.90;;;18.40;90.50;;;;;;4956577;29;20035;-82
2021/07/09 01:21:43;;;;;;;1.70;0.90;;;18.50;90.50;;;;;;4938916;29;20107;-83
2021/07/09 01:24:10;;;;;;;3.88;1.02;;;18.40;90.60;;;;;;4939319;29;20031;-81
2021/07/09 01:26:37;;;;;;;6.78;1.20;;;18.60;90.70;;;;;;4956560;28;20031;-81
2021/07/09 01:29:04;;;;;;;2.40;1.10;;;18.50;90.70;;;;;;4955628;29;20043;-81
2021/07/09 01:31:30;;;;;;;2.45;1.05;;;18.50;90.70;;;;;;4956242;28;20054;-80
2021/07/09 01:33:56;;;;;;;3.45;1.08;;;18.50;90.70;;;;;;4955629;29;20163;-81
2021/07/09 01:36:22;;;;;;;2.33;1.10;;;18.50;90.60;;;;;;4939320;29;20039;-80
2021/07/09 01:38:48;;;;;;;4.47;1.40;;;18.50;90.60;;;;;;4938600;29;20384;-81
2021/07/09 01:41:14;;;;;;;3.20;1.20;;;18.50;90.60;;;;;;4938938;29;20468;-80
2021/07/09 01:43:40;;;;;;;2.63;1.30;;;18.50;90.70;;;;;;4938477;29;20082;-80
2021/07/09 01:46:06;;;;;;;2.75;1.40;;;18.50;90.90;;;;;;4938369;29;20027;-80
2021/07/09 01:48:31;;;;;;;2.75;1.30;;;18.40;91.00;;;;;;4938932;29;20065;-81
2021/07/09 01:50:57;;;;;;;4.88;1.60;;;18.40;91.00;;;;;;4938516;29;20123;-80
2021/07/09 01:53:23;;;;;;;5.38;1.70;;;18.40;91.10;;;;;;4938798;29;20035;-81
2021/07/09 01:55:49;;;;;;;5.25;1.40;;;18.40;91.10;;;;;;4955210;29;20488;-81
2021/07/09 01:58:15;;;;;;;4.80;1.40;;;18.40;91.20;;;;;;4955654;29;20040;-81
2021/07/09 02:00:41;;;;;;;3.10;1.80;;;18.30;91.20;;;;;;4955403;28;20138;-81
2021/07/09 02:03:06;;;;;;;3.15;1.50;;;18.30;91.30;;;;;;4938182;29;20392;-81
2021/07/09 02:05:33;;;;;;;5.07;1.60;;;18.30;91.30;;;;;;4938466;29;20030;-81
2021/07/09 02:07:58;;;;;;;7.82;1.92;;;18.30;91.30;;;;;;4938233;29;20106;-80
2021/07/09 02:10:31;;;;;;;4.40;1.70;;;18.30;91.30;;;;;;4938780;29;20456;-80
2021/07/09 02:12:58;;;;;;;4.85;1.80;;;18.30;91.40;;;;;;4938409;29;20038;-80
2021/07/09 02:15:33;;;;;;;4.35;1.40;;;18.30;91.40;;;;;;4955708;28;20027;-81
2021/07/09 02:17:59;;;;;;;7.15;1.60;;;18.30;91.40;;;;;;4938065;29;20132;-81
2021/07/09 02:20:27;;;;;;;5.43;1.63;;;18.30;91.40;;;;;;4955691;29;20094;-79
2021/07/09 02:22:57;;;;;;;3.85;1.48;;;18.20;91.40;;;;;;4955158;29;20023;-81
2021/07/09 02:25:23;;;;;;;3.92;1.30;;;18.20;91.40;;;;;;4955795;29;20480;-81
2021/07/09 02:27:50;;;;;;;2.47;1.17;;;18.20;91.30;;;;;;4955171;29;20024;-81
2021/07/09 02:30:17;;;;;;;2.90;1.30;;;18.20;91.30;;;;;;4937888;29;20031;-81
2021/07/09 02:32:44;;;;;;;5.53;1.40;;;18.10;91.30;;;;;;4955771;29;20063;-81
2021/07/09 02:35:12;;;;;;;1.33;1.00;;;18.20;91.20;;;;;;4955424;28;20094;-80
2021/07/09 02:37:39;;;;;;;5.57;1.38;;;18.20;91.30;;;;;;4955753;28;20504;-81
2021/07/09 02:40:07;;;;;;;2.10;1.20;;;18.20;91.20;;;;;;4938010;29;20027;-80
2021/07/09 02:42:33;;;;;;;3.58;1.35;;;18.20;91.10;;;;;;4955532;29;20036;-80
2021/07/09 02:44:58;;;;;;;4.05;1.20;;;18.20;91.10;;;;;;4937927;29;20028;-81
2021/07/09 02:47:24;;;;;;;3.33;1.80;;;18.20;91.20;;;;;;4955070;29;20027;-80
2021/07/09 02:49:50;;;;;;;4.93;1.67;;;18.30;91.40;;;;;;4938089;29;20027;-81
2021/07/09 02:52:15;;;;;;;6.07;1.50;;;18.20;91.60;;;;;;4955704;29;20031;-80
2021/07/09 02:54:41;;;;;;;7.07;1.52;;;18.20;91.70;;;;;;4939344;29;20473;-80
2021/07/09 02:57:07;;;;;;;2.25;1.35;;;18.20;91.80;;;;;;4958450;29;20215;-81
2021/07/09 02:59:33;;;;;;;5.70;1.70;;;18.10;91.80;;;;;;4958639;28;20054;-79
2021/07/09 03:01:59;;;;;;;3.92;1.60;;;18.10;91.90;;;;;;4941474;29;20130;-81
2021/07/09 03:04:24;;;;;;;3.60;1.70;;;18.00;91.80;;;;;;4941918;29;20039;-80
2021/07/09 03:06:50;;;;;;;4.18;1.73;;;17.90;91.90;;;;;;4941161;29;20078;-81
2021/07/09 03:09:16;;;;;;;3.55;1.60;;;17.80;92.00;;;;;;4958891;28;20024;-80
2021/07/09 03:11:41;;;;;;;3.05;1.38;;;17.80;92.10;;;;;;4958596;29;20035;-80
2021/07/09 03:14:08;;;;;;;3.45;1.73;;;17.80;92.10;;;;;;4941289;29;20385;-80
2021/07/09 03:16:36;;;;;;;7.25;2.85;;;17.80;92.20;;;;;;4941616;29;20031;-80
2021/07/09 03:19:04;;;;;;;3.78;2.15;;;17.70;92.10;;;;;;4941130;29;20123;-80
2021/07/09 03:21:30;;;;;;;7.78;2.42;;;17.70;92.20;;;;;;4958200;29;20031;-79
2021/07/09 03:23:55;;;;;;;6.50;2.40;;;17.80;92.10;;;;;;4940993;29;20167;-80
2021/07/09 03:26:21;;;;;;;8.45;2.38;;;17.70;92.10;;;;;;4941437;29;20395;-80
2021/07/09 03:28:47;;;;;;;6.18;2.13;;;17.80;91.90;;;;;;4941594;29;20495;-80
2021/07/09 03:31:12;;;;;;;5.57;1.88;;;17.70;92.00;;;;;;4940648;29;20547;-79
2021/07/09 03:33:38;;;;;;;6.00;1.98;;;17.70;92.10;;;;;;4941517;29;20023;-79
2021/07/09 03:36:05;;;;;;;6.40;2.40;;;17.80;92.10;;;;;;4940846;29;20122;-80
2021/07/09 03:38:31;;;;;;;9.00;2.25;;;17.70;92.00;;;;;;4941368;29;20031;-80
2021/07/09 03:40:57;;;;;;;8.20;2.20;;;17.70;92.20;;;;;;4940688;29;20105;-80
2021/07/09 03:43:22;;;;;;;8.55;2.30;;;17.70;92.20;;;;;;4958126;29;20078;-80
2021/07/09 03:45:48;;;;;;;5.72;2.15;;;17.70;92.20;;;;;;4958329;29;20398;-80
2021/07/09 03:48:13;;;;;;;5.45;1.63;;;17.80;92.20;;;;;;4940484;29;20027;-80
2021/07/09 03:50:40;;;;;;;6.05;2.15;;;17.70;92.30;;;;;;4941050;29;20030;-80
2021/07/09 03:53:06;;;;;;;6.15;2.33;;;17.70;92.40;;;;;;4957681;29;20100;-80
2021/07/09 03:55:32;;;;;;;7.07;2.40;;;17.70;92.60;;;;;;4940755;29;20032;-81
2021/07/09 03:57:58;;;;;;;8.02;2.45;;;17.70;92.70;;;;;;4957726;29;20536;-81
2021/07/09 04:00:23;;;;;;;7.45;2.30;;;17.60;92.90;;;;;;4940995;29;20061;-81
2021/07/09 04:02:49;;;;;;;6.38;2.20;;;17.60;92.90;;;;;;4957827;29;20027;-80
2021/07/09 04:05:15;;;;;;;5.38;2.08;;;17.60;93.20;;;;;;4940323;29;20388;-80
2021/07/09 04:07:40;;;;;;;7.90;2.55;;;17.60;93.30;;;;;;4941094;29;20031;-80
2021/07/09 04:10:07;;;;;;;7.93;2.20;;;17.60;93.40;;;;;;4940277;29;20497;-80
2021/07/09 04:12:33;;;;;;;6.40;1.80;;;17.60;93.60;;;;;;4940815;29;20028;-80
2021/07/09 04:14:59;;;;;;;3.60;2.17;;;17.50;93.60;;;;;;4957295;29;20115;-80
2021/07/09 04:17:25;;;;;;;5.78;2.05;;;17.50;93.60;;;;;;4940761;29;20039;-80
2021/07/09 04:19:51;;;;;;;8.05;2.00;;;17.50;93.80;;;;;;4940642;29;20027;-80
2021/07/09 04:22:18;;;;;;;2.97;1.95;;;17.50;93.90;;;;;;4939859;29;20023;-80
2021/07/09 04:24:43;;;;;;;5.47;1.80;;;17.50;94.00;;;;;;4940576;29;20027;-80
2021/07/09 04:27:10;;;;;;;5.25;2.15;;;17.40;94.00;;;;;;4939958;29;20035;-80
2021/07/09 04:29:36;;;;;;;4.13;1.80;;;17.40;94.00;;;;;;4939915;29;20067;-80
2021/07/09 04:32:02;;;;;;;2.67;1.77;;;17.30;94.10;;;;;;4939742;29;20036;-80
2021/07/09 04:34:28;;;;;;;4.10;2.05;;;17.30;94.00;;;;;;4940228;29;20058;-80
2021/07/09 04:36:53;;;;;;;3.17;2.22;;;17.30;94.00;;;;;;4939793;29;20524;-83
2021/07/09 04:39:19;;;;;;;5.13;1.98;;;17.30;94.10;;;;;;4940441;29;20077;-80
2021/07/09 04:41:45;;;;;;;3.53;1.85;;;17.30;94.00;;;;;;4957257;29;20079;-79
2021/07/09 04:44:10;;;;;;;4.97;1.90;;;17.30;94.00;;;;;;4939645;29;20464;-80
2021/07/09 04:46:36;;;;;;;5.28;2.20;;;17.30;94.00;;;;;;4940198;29;20039;-80
2021/07/09 04:49:02;;;;;;;4.43;2.20;;;17.20;93.90;;;;;;4939284;29;20108;-80
2021/07/09 04:51:27;;;;;;;5.43;2.38;;;17.20;94.00;;;;;;4939898;29;20024;-80
2021/07/09 04:53:53;;;;;;;5.10;2.05;;;17.10;94.00;;;;;;4940230;29;20034;-80
2021/07/09 04:56:19;;;;;;;3.63;2.05;;;17.10;94.00;;;;;;4939707;29;20396;-80
2021/07/09 04:58:44;;;;;;;4.03;2.25;;;17.10;94.10;;;;;;4939888;29;20043;-81
2021/07/09 05:01:12;;;;;;;3.95;1.63;;;17.10;93.90;;;;;;4939524;29;20366;-80
2021/07/09 05:03:38;;;;;;;6.55;2.22;;;17.10;93.90;;;;;;4939813;29;20023;-80
2021/07/09 05:06:04;;;;;;;2.67;1.88;;;17.10;93.90;;;;;;4939397;29;20031;-80
2021/07/09 05:08:29;;;;;;;4.88;2.00;;;17.00;93.90;;;;;;4956561;29;20058;-81
2021/07/09 05:10:55;;;;;;;5.82;1.95;;;17.00;93.90;;;;;;4956174;29;20036;-83
2021/07/09 05:13:21;;;;;;;3.60;2.63;;;17.10;94.00;;;;;;4956291;29;20035;-79
2021/07/09 05:15:46;;;;;;;4.90;2.50;;;17.00;94.00;;;;;;4956581;29;20035;-80
2021/07/09 05:18:12;;;;;;;6.32;2.05;;;17.00;94.00;;;;;;4938432;29;20484;-80
2021/07/09 05:20:38;;;;;;;3.13;2.00;;;17.00;94.00;;;;;;4939667;29;20457;-80
2021/07/09 05:23:04;;;;;;;5.35;2.13;;;17.00;93.90;;;;;;4956358;29;20031;-80
2021/07/09 05:25:29;;;;;;;4.07;2.20;;;17.00;93.90;;;;;;4956404;29;20067;-80
2021/07/09 05:27:55;;;;;;;5.05;2.08;;;17.00;94.00;;;;;;4939616;29;20539;-80
2021/07/09 05:30:21;;;;;;;2.83;2.30;;;17.00;94.00;;;;;;4938919;29;20034;-80
2021/07/09 05:32:47;;;;;;;4.05;2.00;;;17.00;94.00;;;;;;4939171;29;20034;-80
2021/07/09 05:35:13;;;;;;;3.13;2.17;;;17.00;94.10;;;;;;4938678;29;20069;-80
2021/07/09 05:37:39;;;;;;;5.57;2.08;;;17.00;94.00;;;;;;4939285;29;20035;-80
2021/07/09 05:40:05;;;;;;;3.70;2.05;;;16.90;94.00;;;;;;4955796;29;20545;-80
2021/07/09 05:42:31;;;;;;;4.35;1.98;;;17.00;94.10;;;;;;4939288;29;20047;-80
2021/07/09 05:44:57;;;;;;;2.83;2.00;;;17.00;94.00;;;;;;4939215;29;20074;-80
2021/07/09 05:47:24;;;;;;;2.75;2.50;;;17.00;94.00;;;;;;4939028;29;20035;-80
2021/07/09 05:49:50;;;;;;;3.60;2.00;;;17.00;94.00;;;;;;4956216;29;20487;-79
2021/07/09 05:52:16;;;;;;;4.63;2.22;;;17.10;94.10;;;;;;4938443;29;20039;-80
2021/07/09 05:54:42;;;;;;;4.50;2.10;;;17.10;94.00;;;;;;4938805;29;20053;-80
2021/07/09 05:57:08;;;;;;;2.92;1.98;;;17.10;93.90;;;;;;4955501;29;20039;-82
2021/07/09 05:59:35;;;;;;;5.93;2.17;;;17.10;93.90;;;;;;4938830;29;20134;-81
2021/07/09 06:02:01;;;;;;;3.13;2.30;;;17.20;93.90;;;;;;4938901;29;20465;-81
2021/07/09 06:04:26;;;;;;;4.32;2.20;;;17.20;94.00;;;;;;4939133;29;20086;-79
2021/07/09 06:06:52;;;;;;;5.25;2.30;;;17.20;93.70;;;;;;4955731;29;20380;-79
2021/07/09 06:09:18;;;;;;;4.97;2.00;;;17.20;93.80;;;;;;4937640;29;20031;-79
2021/07/09 06:11:44;;;;;;;5.40;2.13;;;17.30;93.80;;;;;;4938372;29;20173;-80
2021/07/09 06:14:09;;;;;;;3.90;1.83;;;17.30;93.90;;;;;;4938581;29;20114;-81
2021/07/09 06:16:35;;;;;;;2.60;2.15;;;17.30;93.80;;;;;;4938628;29;20035;-81
2021/07/09 06:19:00;;;;;;;3.20;2.13;;;17.40;93.70;;;;;;4955189;29;20024;-82
2021/07/09 06:21:26;;;;;;;4.43;2.10;;;17.40;93.70;;;;;;4938841;29;20434;-81
2021/07/09 06:23:53;;;;;;;6.38;2.58;;;17.40;93.60;;;;;;4938634;29;20032;-81
2021/07/09 06:26:19;;;;;;;4.18;2.25;;;17.50;93.50;;;;;;4938337;29;20362;-81
2021/07/09 06:28:45;;;;;;;5.75;2.47;;;17.50;93.30;;;;;;4939626;29;20476;-80
2021/07/09 06:31:10;;;;;;;4.57;2.58;;;17.50;93.40;;;;;;4959111;29;20035;-82
2021/07/09 06:33:37;;;;;;;5.88;2.08;;;17.50;93.40;;;;;;4942343;29;20027;-81
2021/07/09 06:36:03;;;;;;;5.75;2.10;;;17.50;93.40;;;;;;4941968;29;20039;-82
2021/07/09 06:38:28;;;;;;;3.50;1.90;;;17.50;93.40;;;;;;4959174;29;20075;-81
2021/07/09 06:40:54;;;;;;;4.22;2.20;;;17.50;93.40;;;;;;4942216;29;20381;-81
2021/07/09 06:43:20;;;;;;;2.25;1.75;;;17.50;93.30;;;;;;4958524;29;20067;-80
2021/07/09 06:45:46;;;;;;;4.13;2.35;;;17.50;93.30;;;;;;4959166;29;20067;-81
2021/07/09 06:48:12;;;;;;;2.50;2.00;;;17.50;93.60;;;;;;4958607;29;20028;-81
2021/07/09 06:50:38;;;;;;;3.70;2.10;;;17.40;93.60;;;;;;4941782;29;20038;-80
2021/07/09 06:53:04;;;;;;;6.13;2.75;;;17.40;93.60;;;;;;4941340;29;20031;-81
2021/07/09 06:55:31;;;;;;;3.50;2.17;;;17.50;93.50;;;;;;4941524;29;20031;-81
2021/07/09 06:57:56;;;;;;;7.38;2.28;;;17.50;93.40;;;;;;4941753;29;20027;-80
2021/07/09 07:00:22;;;;;;;5.50;2.55;;;17.50;93.30;;;;;;4940697;29;20077;-81
2021/07/09 07:02:48;;;;;;;3.90;1.88;;;17.60;93.30;;;;;;4941590;29;20474;-81
2021/07/09 07:05:15;;;;;;;2.30;1.83;;;17.60;93.00;;;;;;4958438;29;20031;-81
2021/07/09 07:07:41;;;;;;;2.63;1.83;;;17.60;93.00;;;;;;4958706;29;20038;-80
2021/07/09 07:10:09;;;;;;;5.13;1.98;;;17.70;93.00;;;;;;4958243;29;20023;-81
2021/07/09 07:12:35;;;;;;;4.80;2.15;;;17.70;92.80;;;;;;4958742;29;20040;-82
2021/07/09 07:15:02;;;;;;;7.38;2.28;;;17.70;92.80;;;;;;4941327;29;20023;-80
2021/07/09 07:17:28;;;;;;;4.25;2.20;;;17.80;92.80;;;;;;4958122;29;20090;-81
2021/07/09 07:19:53;;;;;;;4.40;2.03;;;17.80;92.70;;;;;;4940752;29;20377;-81
2021/07/09 07:22:19;;;;;;;4.07;2.17;;;17.70;92.90;;;;;;4957186;29;20069;-81
2021/07/09 07:24:48;;;;;;;5.70;2.30;;;17.80;92.90;;;;;;4941021;29;20490;-81
2021/07/09 07:27:14;;;;;;;6.20;2.20;;;17.90;92.80;;;;;;4937846;29;20027;-80
2021/07/09 07:29:40;;;;;;;5.05;2.50;;;18.00;92.70;;;;;;4957504;29;20054;-79
2021/07/09 07:32:06;;;;;;;4.85;2.17;;;18.00;92.60;;;;;;4943310;29;20535;-79
2021/07/09 07:34:32;;;;;;;2.90;1.77;;;18.00;92.40;;;;;;4941458;29;20034;-79
2021/07/09 07:36:58;;;;;;;6.20;2.53;;;18.10;92.60;;;;;;4956512;29;20032;-79
2021/07/09 07:39:23;;;;;;;3.88;2.67;;;18.10;92.60;;;;;;4939312;29;20031;-79
2021/07/09 07:41:49;;;;;;;6.78;2.75;;;18.20;92.80;;;;;;4956601;28;20471;-79
2021/07/09 07:44:15;;;;;;;4.30;2.45;;;18.10;92.10;;;;;;4952212;28;20237;-80
2021/07/09 07:46:40;;;;;;;4.20;2.30;;;18.10;92.00;;;;;;4960024;28;20374;-80
2021/07/09 07:49:06;;;;;;;5.30;2.78;;;18.10;92.10;;;;;;4959052;28;20483;-82
2021/07/09 07:51:32;;;;;;;6.13;2.88;;;18.20;92.10;;;;;;4959597;28;20410;-81
2021/07/09 07:53:57;;;;;;;3.88;2.58;;;18.20;91.90;;;;;;4959903;28;20030;-80
2021/07/09 07:56:23;;;;;;;6.43;2.47;;;18.30;91.70;;;;;;4953305;29;20042;-85
2021/07/09 07:58:51;;;;;;;3.67;2.35;;;18.30;91.70;;;;;;4940293;29;20172;-83
2021/07/09 08:01:17;;;;;;;4.93;2.40;;;18.30;91.70;;;;;;4936800;29;20035;-78
2021/07/09 08:03:43;;;;;;;4.20;2.20;;;18.30;92.10;;;;;;4938028;29;20027;-79
2021/07/09 08:06:09;;;;;;;5.05;2.58;;;18.40;92.30;;;;;;4923340;29;20543;-82
2021/07/09 08:08:35;;;;;;;4.93;2.60;;;18.40;91.80;;;;;;4942485;28;20023;-79
2021/07/09 08:11:02;;;;;;;4.47;2.60;;;18.30;91.50;;;;;;4975889;28;20440;-80
2021/07/09 08:13:27;;;;;;;5.60;2.33;;;18.40;91.90;;;;;;4976112;28;20063;-79
2021/07/09 08:15:53;;;;;;;4.68;2.20;;;18.60;91.80;;;;;;4958692;28;20035;-79
2021/07/09 08:18:19;;;;;;;3.08;2.30;;;18.70;91.90;;;;;;4958425;28;20049;-79
2021/07/09 08:20:44;;;;;;;3.85;2.20;;;18.90;91.30;;;;;;4976551;28;20467;-79
2021/07/09 08:23:10;;;;;;;6.40;2.10;;;19.10;90.70;;;;;;4958610;28;20030;-81
2021/07/09 08:25:36;;;;;;;3.60;2.20;;;19.30;90.70;;;;;;4960093;28;20035;-80
2021/07/09 08:28:02;;;;;;;4.93;2.28;;;19.40;89.70;;;;;;4939480;29;20063;-79
2021/07/09 08:30:28;;;;;;;4.55;2.28;;;19.40;89.60;;;;;;4955848;29;20555;-79
2021/07/09 08:32:54;;;;;;;3.85;2.13;;;19.50;89.00;;;;;;4939376;29;20027;-80
2021/07/09 08:35:20;;;;;;;3.90;1.92;;;19.50;89.50;;;;;;4938289;29;20027;-78
2021/07/09 08:37:45;;;;;;;6.72;2.63;;;19.50;88.90;;;;;;4939571;29;20122;-81
2021/07/09 08:40:11;;;;;;;3.97;2.20;;;19.60;88.70;;;;;;4956391;29;20031;-78
2021/07/09 08:42:38;;;;;;;5.70;2.67;;;19.70;88.30;;;;;;4939042;29;20027;-79
2021/07/09 08:45:08;;;;;;;4.65;2.65;;;19.70;87.70;;;;;;4938993;29;20031;-78
2021/07/09 08:47:34;;;;;;;7.07;2.50;;;19.80;88.40;;;;;;4955817;29;20034;-78
2021/07/09 08:50:07;;;;;;;4.07;2.15;;;19.80;87.80;;;;;;4938328;29;20027;-79
2021/07/09 08:52:36;;;;;;;6.00;2.97;;;19.80;87.90;;;;;;4937171;29;20023;-78
2021/07/09 08:55:11;;;;;;;5.18;2.92;;;19.80;88.20;;;;;;4938089;29;20149;-79
2021/07/09 08:57:39;;;;;;;6.68;2.90;;;19.80;88.40;;;;;;4935823;29;20035;-78
2021/07/09 09:00:26;;;;;;;4.55;2.65;;;19.80;88.30;;;;;;4938580;29;20039;-78
2021/07/09 09:02:52;;;;;;;3.97;2.45;;;19.80;88.00;;;;;;4938900;29;20370;-78
2021/07/09 09:05:22;;;;;;;3.25;2.15;;;19.80;88.00;;;;;;4938642;29;20532;-78
2021/07/09 09:08:01;;;;;;;5.80;2.72;;;19.90;87.80;;;;;;4938948;29;20031;-79
2021/07/09 09:10:47;;;;;;;7.40;2.50;;;19.90;88.00;;;;;;4955233;29;20059;-79
2021/07/09 09:13:18;;;;;;;5.93;2.50;;;20.20;88.00;;;;;;4938307;29;20030;-78
2021/07/09 09:16:11;;;;;;;3.47;2.58;;;20.20;87.20;;;;;;4956122;29;20078;-78
2021/07/09 09:18:47;;;;;;;8.32;2.75;;;20.20;86.30;;;;;;4921748;29;20035;-78
2021/07/09 09:21:16;;;;;;;6.03;2.70;;;20.20;87.20;;;;;;4955982;29;20054;-79
2021/07/09 09:23:49;;;;;;;6.78;2.85;;;20.40;87.10;;;;;;4938646;29;20114;-78
2021/07/09 09:26:50;;;;;;;6.35;2.72;;;20.40;85.70;;;;;;4938376;29;20031;-78
2021/07/09 09:29:35;;;;;;;6.18;2.97;;;20.60;86.10;;;;;;4938205;29;20039;-83
2021/07/09 09:32:09;;;;;;;7.38;3.58;;;20.70;85.30;;;;;;4938535;29;20062;-79
2021/07/09 09:34:36;;;;;;;5.45;3.08;;;20.80;83.70;;;;;;4938478;29;20035;-78
2021/07/09 09:37:03;;;;;;;5.63;2.90;;;20.80;83.60;;;;;;4938384;29;20035;-79
2021/07/09 09:39:28;;;;;;;8.85;3.30;;;20.70;83.50;;;;;;4937424;29;20038;-78
2021/07/09 09:42:08;;;;;;;6.80;3.22;;;20.80;83.60;;;;;;4938479;29;20027;-78
2021/07/09 09:44:34;;;;;;;4.72;3.20;;;20.80;81.40;;;;;;4937851;29;20067;-78
2021/07/09 09:47:18;;;;;;;6.57;3.38;;;20.90;82.80;;;;;;4938356;29;20035;-78
2021/07/09 09:49:45;;;;;;;7.10;4.22;;;20.90;81.80;;;;;;4938342;29;20023;-78
2021/07/09 09:52:11;;;;;;;6.07;3.75;;;20.80;82.70;;;;;;4937982;29;20027;-80
2021/07/09 09:54:37;;;;;;;6.43;3.70;;;20.80;82.70;;;;;;4938119;29;20272;-87
2021/07/09 09:57:06;;;;;;;7.00;4.05;;;20.70;83.70;;;;;;4937641;29;20432;-81
2021/07/09 09:59:32;;;;;;;7.28;3.72;;;20.80;84.20;;;;;;4935787;29;20138;-82
2021/07/09 10:02:07;;;;;;;7.15;3.75;;;20.70;84.30;;;;;;4955109;29;20050;-81
2021/07/09 10:04:34;;;;;;;8.25;3.95;;;20.70;83.70;;;;;;4937487;29;20023;-78
2021/07/09 10:07:01;;;;;;;6.10;3.50;;;20.70;84.30;;;;;;4937852;29;20023;-77
2021/07/09 10:09:28;;;;;;;6.20;3.55;;;20.80;84.30;;;;;;4937557;29;20465;-77
2021/07/09 10:11:55;;;;;;;6.75;3.70;;;20.80;83.50;;;;;;4930984;29;20059;-78
2021/07/09 10:14:23;;;;;;;36.20;21.33;;;20.80;84.30;;;;;;4935818;29;20035;-79
2021/07/09 10:16:51;;;;;;;82.82;51.38;;;20.90;84.60;;;;;;4934557;29;20039;-77
2021/07/09 10:19:24;;;;;;;62.35;36.22;;;20.90;83.40;;;;;;4936666;29;20047;-78
2021/07/09 10:21:50;;;;;;;15.93;9.40;;;21.10;83.70;;;;;;4937344;29;20477;-79
2021/07/09 10:24:17;;;;;;;12.32;6.07;;;21.20;81.80;;;;;;4936148;29;20042;-77
2021/07/09 10:26:47;;;;;;;10.55;4.30;;;21.40;81.60;;;;;;4919191;29;20477;-78
2021/07/09 10:29:22;;;;;;;10.98;4.00;;;21.60;79.50;;;;;;4923729;29;20060;-78
2021/07/09 10:31:50;;;;;;;7.00;4.07;;;21.70;78.50;;;;;;4928325;29;20037;-77
2021/07/09 10:34:30;;;;;;;6.55;3.58;;;21.70;78.30;;;;;;4939284;29;20070;-78
2021/07/09 10:37:01;;;;;;;4.80;3.13;;;21.80;79.50;;;;;;4921656;29;20036;-78
2021/07/09 10:39:34;;;;;;;4.53;3.28;;;21.90;79.10;;;;;;4928754;29;20536;-79
2021/07/09 10:42:14;;;;;;;5.88;3.33;;;22.00;78.30;;;;;;4947327;29;20031;-78
2021/07/09 10:44:56;;;;;;;5.35;3.17;;;22.10;77.20;;;;;;4921238;29;20028;-78
2021/07/09 10:47:21;;;;;;;5.68;3.70;;;22.20;77.40;;;;;;4946749;29;20060;-78
2021/07/09 10:49:50;;;;;;;6.43;3.65;;;22.10;76.60;;;;;;4918274;29;20059;-78
2021/07/09 10:52:54;;;;;;;6.63;3.00;;;21.90;77.20;;;;;;4917135;29;20031;-78
2021/07/09 10:55:26;;;;;;;6.85;2.90;;;21.90;78.40;;;;;;4948536;29;20027;-79
2021/07/09 10:58:20;;;;;;;5.45;3.67;;;21.80;79.90;;;;;;4925352;29;20039;-78
2021/07/09 11:01:16;;;;;;;6.07;3.40;;;21.70;79.00;;;;;;4936312;29;20114;-78
2021/07/09 11:03:46;;;;;;;5.88;3.65;;;21.50;79.60;;;;;;4944172;29;20028;-77
2021/07/09 11:06:19;;;;;;;5.68;3.75;;;21.50;81.00;;;;;;4948998;29;20034;-78
2021/07/09 11:08:53;;;;;;;5.70;3.92;;;21.50;81.80;;;;;;4924444;29;20034;-78
2021/07/09 11:11:36;;;;;;;5.88;3.67;;;21.60;83.10;;;;;;4929397;29;20024;-78
2021/07/09 11:14:16;;;;;;;5.38;3.83;;;21.70;83.30;;;;;;4930161;29;20031;-78
2021/07/09 11:16:44;;;;;;;7.40;3.90;;;21.80;84.30;;;;;;4923646;29;20119;-77
2021/07/09 11:19:16;;;;;;;6.43;3.97;;;21.80;84.10;;;;;;4926531;29;20027;-77
2021/07/09 11:21:44;;;;;;;;;;;21.90;83.70;;;;;;4947977;29;20076;-77
2021/07/09 11:24:17;;;;;;;5.35;3.67;;;21.90;84.70;;;;;;4921573;29;19906;-78
2021/07/09 11:26:54;;;;;;;9.73;4.25;;;22.00;83.50;;;;;;4936684;29;20043;-78
2021/07/09 11:29:26;;;;;;;6.70;3.85;;;22.00;83.00;;;;;;4931709;29;20388;-78
2021/07/09 11:31:53;;;;;;;;;;;22.00;83.40;;;;;;4939964;29;20039;-80
2021/07/09 11:34:19;;;;;;;10.85;4.35;;;22.00;83.20;;;;;;4967872;28;19992;-78
2021/07/09 11:36:45;;;;;;;8.15;4.43;;;22.00;83.50;;;;;;4939855;29;20473;-78
2021/07/09 11:39:13;;;;;;;8.73;4.25;;;22.00;82.20;;;;;;4933924;29;20097;-77
2021/07/09 11:41:54;;;;;;;9.02;3.85;;;22.00;82.90;;;;;;4928790;29;20031;-77
2021/07/09 11:44:29;;;;;;;6.97;4.28;;;22.00;82.20;;;;;;4939152;29;20034;-78
2021/07/09 11:46:58;;;;;;;6.43;4.35;;;22.00;80.20;;;;;;4956793;29;20054;-78
2021/07/09 11:49:26;;;;;;;5.20;3.35;;;22.10;80.40;;;;;;4936386;29;20039;-79
2021/07/09 11:51:59;;;;;;;6.25;3.10;;;22.00;77.40;;;;;;4938894;29;20067;-79
2021/07/09 11:54:36;;;;;;;3.15;2.85;;;22.10;76.50;;;;;;4938671;29;20034;-79
2021/07/09 11:57:09;;;;;;;6.22;2.88;;;22.20;73.20;;;;;;4955314;29;20031;-78
2021/07/09 11:59:37;;;;;;;4.05;3.28;;;22.30;73.30;;;;;;4931104;29;20126;-78
2021/07/09 12:02:10;;;;;;;3.75;3.08;;;22.40;71.50;;;;;;4956322;29;20086;-79
2021/07/09 12:04:49;;;;;;;3.40;2.72;;;22.40;72.50;;;;;;4936382;29;20042;-78
2021/07/09 12:07:34;;;;;;;7.35;2.75;;;22.40;72.30;;;;;;4950614;29;20461;-78
2021/07/09 12:10:29;;;;;;;4.40;2.78;;;22.40;72.10;;;;;;4939309;29;20023;-78
2021/07/09 12:12:57;;;;;;;4.55;2.70;;;22.60;73.10;;;;;;4955893;29;20034;-78
2021/07/09 12:15:27;;;;;;;4.53;2.42;;;22.80;73.60;;;;;;4924264;29;20034;-79
2021/07/09 12:18:03;;;;;;;5.13;3.25;;;23.00;69.60;;;;;;4930989;28;20464;-80
2021/07/09 12:20:29;;;;;;;4.80;3.15;;;23.20;71.60;;;;;;4940461;29;20028;-80
2021/07/09 12:23:02;;;;;;;4.03;3.10;;;23.30;72.80;;;;;;4956806;29;20027;-80
2021/07/09 12:25:30;;;;;;;4.43;2.97;;;23.40;71.40;;;;;;4931085;29;20024;-78
2021/07/09 12:28:01;;;;;;;3.70;3.22;;;23.50;69.70;;;;;;4949022;29;20039;-79
2021/07/09 12:30:37;;;;;;;4.90;3.10;;;23.60;68.90;;;;;;4934575;29;20035;-81
2021/07/09 12:33:06;;;;;;;3.28;2.97;;;23.90;69.10;;;;;;4951507;29;20028;-78
2021/07/09 12:35:34;;;;;;;5.00;3.22;;;24.20;68.30;;;;;;4928247;29;20023;-81
2021/07/09 12:38:11;;;;;;;5.90;3.28;;;24.30;68.20;;;;;;4936817;29;20515;-80
2021/07/09 12:40:38;;;;;;;3.97;3.05;;;24.20;67.80;;;;;;4934876;29;20230;-79
2021/07/09 12:43:25;;;;;;;6.30;3.45;;;24.30;68.30;;;;;;4935649;29;20429;-80
2021/07/09 12:46:00;;;;;;;7.60;3.08;;;24.40;63.90;;;;;;4950572;29;20027;-79
2021/07/09 12:48:33;;;;;;;4.68;3.38;;;24.20;63.40;;;;;;4938441;29;20384;-79
2021/07/09 12:50:59;;;;;;;3.55;3.25;;;24.00;64.70;;;;;;4925867;29;20036;-78
2021/07/09 12:53:26;;;;;;;5.13;3.03;;;23.90;66.30;;;;;;4930238;29;20102;-78